Time;durP1;ratioP1;P1;durP2;ratioP2;P2;SDS_P1;SDS_P2;PMS_P1;PMS_P2;Temp;Humidity;BMP_temperature;BMP_pressure;BME280_temperature;BME280_humidity;BME280_pressure;Samples;Min_cycle;Max_cycle;Signal;HPM_P1;HPM_P2
2022/04/12 00:00:34;;;;;;;3.63;2.55;;;14.60;59.30;;;;;;3899839;30;20422;-67
2022/04/12 00:02:55;;;;;;;3.42;2.50;;;14.60;59.70;;;;;;3899401;30;20064;-67
2022/04/12 00:05:18;;;;;;;3.67;1.88;;;14.50;58.70;;;;;;3899628;30;20061;-68
2022/04/12 00:07:53;;;;;;;3.38;2.75;;;14.50;60.50;;;;;;3899317;30;20064;-68
2022/04/12 00:10:15;;;;;;;3.42;2.38;;;14.50;61.80;;;;;;3899939;30;20159;-68
2022/04/12 00:12:38;;;;;;;3.75;2.20;;;14.50;61.60;;;;;;3899769;30;20061;-68
2022/04/12 00:15:00;;;;;;;2.58;2.38;;;14.50;62.40;;;;;;3899330;30;20136;-68
2022/04/12 00:20:03;;;;;;;5.75;2.90;;;14.50;61.60;;;;;;3899138;30;20164;-69
2022/04/12 00:22:25;;;;;;;4.03;2.28;;;14.50;62.90;;;;;;3899405;30;20421;-69
2022/04/12 00:24:48;;;;;;;5.80;2.60;;;14.50;63.80;;;;;;3898975;30;20700;-69
2022/04/12 00:27:10;;;;;;;3.75;2.75;;;14.50;63.80;;;;;;3899426;30;20787;-69
2022/04/12 00:29:33;;;;;;;5.93;3.25;;;14.50;63.60;;;;;;3886471;30;20062;-68
2022/04/12 00:31:56;;;;;;;2.92;2.22;;;14.50;63.60;;;;;;3899581;30;20164;-68
2022/04/12 00:34:18;;;;;;;3.67;2.78;;;14.50;63.60;;;;;;3899669;30;20057;-68
2022/04/12 00:36:41;;;;;;;5.40;2.92;;;14.50;62.20;;;;;;3888477;30;20061;-68
2022/04/12 00:39:04;;;;;;;3.97;2.75;;;14.50;63.80;;;;;;3886763;30;20060;-68
2022/04/12 00:41:35;;;;;;;3.10;2.70;;;14.50;63.50;;;;;;3894508;30;20060;-69
2022/04/12 00:43:57;;;;;;;5.40;3.00;;;14.60;63.40;;;;;;3894734;30;20486;-68
2022/04/12 00:46:19;;;;;;;2.97;2.60;;;14.50;63.30;;;;;;3895848;30;20045;-69
2022/04/12 00:48:41;;;;;;;4.90;3.47;;;14.50;61.90;;;;;;3883045;30;20456;-69
2022/04/12 00:51:03;;;;;;;5.10;3.05;;;14.50;60.20;;;;;;3892237;30;20115;-69
2022/04/12 00:53:26;;;;;;;5.13;4.32;;;14.50;59.30;;;;;;3893840;30;20067;-68
2022/04/12 00:55:48;;;;;;;5.30;3.10;;;14.50;58.90;;;;;;3894068;30;20052;-68
2022/04/12 00:58:12;;;;;;;8.43;3.08;;;14.50;58.90;;;;;;3892703;30;20524;-68
2022/04/12 01:00:35;;;;;;;3.75;3.42;;;14.50;59.40;;;;;;3896665;30;20383;-68
2022/04/12 01:02:58;;;;;;;5.88;3.17;;;14.40;57.80;;;;;;3882660;30;20446;-67
2022/04/12 01:05:20;;;;;;;4.72;3.17;;;14.40;57.90;;;;;;3895010;30;20101;-68
2022/04/12 01:07:44;;;;;;;3.92;3.17;;;14.40;58.50;;;;;;3894230;30;20721;-68
2022/04/12 01:10:06;;;;;;;4.28;3.15;;;14.30;58.30;;;;;;3894615;30;20057;-68
2022/04/12 01:12:30;;;;;;;4.95;3.80;;;14.30;58.00;;;;;;3883899;30;20517;-69
2022/04/12 01:14:54;;;;;;;5.47;2.90;;;14.30;57.90;;;;;;3883853;30;20427;-69
2022/04/12 01:17:16;;;;;;;6.82;3.15;;;14.20;58.20;;;;;;3884165;30;20061;-69
2022/04/12 01:19:38;;;;;;;6.78;3.00;;;14.20;58.30;;;;;;3884363;30;20049;-69
2022/04/12 01:22:04;;;;;;;8.00;3.30;;;14.20;58.60;;;;;;3895527;30;20053;-69
2022/04/12 01:24:27;;;;;;;3.50;3.17;;;14.10;58.80;;;;;;3899003;30;20056;-69
2022/04/12 01:26:49;;;;;;;5.57;3.63;;;14.10;58.50;;;;;;3885499;30;20398;-69
2022/04/12 01:29:11;;;;;;;3.70;2.88;;;14.10;58.40;;;;;;3898719;30;20869;-69
2022/04/12 01:31:34;;;;;;;6.15;3.60;;;14.10;58.70;;;;;;3898709;30;20084;-68
2022/04/12 01:33:55;;;;;;;7.40;3.75;;;14.00;58.70;;;;;;3898480;30;20136;-69
2022/04/12 01:36:18;;;;;;;4.32;3.45;;;14.00;59.00;;;;;;3898206;30;20595;-69
2022/04/12 01:38:40;;;;;;;7.07;4.00;;;14.00;59.50;;;;;;3898644;30;20061;-68
2022/04/12 01:41:04;;;;;;;7.72;3.83;;;14.00;59.10;;;;;;3885318;30;20057;-68
2022/04/12 01:43:26;;;;;;;5.93;3.47;;;13.90;58.90;;;;;;3884552;30;20143;-69
2022/04/12 01:45:48;;;;;;;4.07;3.53;;;13.90;59.40;;;;;;3897970;30;20097;-68
2022/04/12 01:48:10;;;;;;;3.85;3.45;;;13.90;59.10;;;;;;3897979;30;20049;-68
2022/04/12 01:50:32;;;;;;;6.30;3.88;;;13.90;59.80;;;;;;3897797;30;20107;-68
2022/04/12 01:52:55;;;;;;;5.13;3.60;;;13.90;59.80;;;;;;3898251;30;20074;-68
2022/04/12 01:55:17;;;;;;;4.15;3.70;;;13.90;59.50;;;;;;3898400;30;20067;-68
2022/04/12 01:57:41;;;;;;;7.40;3.80;;;13.90;59.80;;;;;;3898517;30;20490;-68
2022/04/12 02:00:05;;;;;;;4.45;4.05;;;13.90;59.40;;;;;;3898192;30;20053;-68
2022/04/12 02:02:32;;;;;;;5.68;3.63;;;13.90;59.80;;;;;;3898517;30;20060;-69
2022/04/12 02:04:55;;;;;;;4.68;3.97;;;13.90;61.20;;;;;;3898082;30;20061;-67
2022/04/12 02:07:17;;;;;;;4.53;3.97;;;13.90;62.60;;;;;;3898116;30;20053;-67
2022/04/12 02:09:39;;;;;;;5.68;3.58;;;13.90;63.40;;;;;;3898199;30;20061;-67
2022/04/12 02:12:01;;;;;;;4.53;4.10;;;13.90;63.50;;;;;;3898361;30;20130;-67
2022/04/12 02:14:25;;;;;;;5.32;3.63;;;14.00;63.80;;;;;;3897882;30;20070;-67
2022/04/12 02:16:47;;;;;;;6.80;3.70;;;14.00;64.10;;;;;;3898372;30;20045;-66
2022/04/12 02:19:09;;;;;;;3.47;3.17;;;14.00;64.60;;;;;;3898194;30;20053;-68
2022/04/12 02:21:31;;;;;;;4.85;3.75;;;14.00;64.90;;;;;;3884313;30;20094;-68
2022/04/12 02:23:53;;;;;;;7.82;4.53;;;14.00;64.10;;;;;;3898035;30;20053;-68
2022/04/12 02:26:15;;;;;;;6.03;4.10;;;14.00;63.20;;;;;;3897728;30;20140;-68
2022/04/12 02:28:37;;;;;;;7.25;4.38;;;14.00;63.50;;;;;;3897771;30;20061;-68
2022/04/12 02:31:01;;;;;;;9.23;4.40;;;14.10;64.20;;;;;;3898089;30;20474;-68
2022/04/12 02:33:23;;;;;;;5.82;4.28;;;14.10;63.90;;;;;;3898051;30;20070;-68
2022/04/12 02:35:45;;;;;;;5.13;4.65;;;14.10;63.80;;;;;;3897722;30;20494;-67
2022/04/12 02:38:07;;;;;;;5.55;4.50;;;14.10;62.90;;;;;;3898024;30;20056;-68
2022/04/12 02:40:29;;;;;;;8.50;4.47;;;14.10;64.20;;;;;;3897902;30;20069;-68
2022/04/12 02:42:51;;;;;;;7.60;5.30;;;14.10;62.90;;;;;;3897872;30;20458;-68
2022/04/12 02:45:13;;;;;;;4.53;3.58;;;14.10;62.60;;;;;;3897843;30;20073;-68
2022/04/12 02:47:37;;;;;;;5.72;4.60;;;14.10;64.10;;;;;;3884630;30;20058;-67
2022/04/12 02:49:59;;;;;;;6.53;4.63;;;14.10;64.70;;;;;;3884560;30;20057;-68
2022/04/12 02:52:21;;;;;;;5.20;4.10;;;14.10;65.20;;;;;;3897585;30;20413;-68
2022/04/12 02:54:43;;;;;;;6.70;4.40;;;14.10;65.50;;;;;;3898009;30;20589;-68
2022/04/12 02:57:05;;;;;;;5.90;4.22;;;14.10;65.80;;;;;;3898003;30;20052;-68
2022/04/12 02:59:28;;;;;;;7.82;4.97;;;14.10;66.10;;;;;;3897878;30;20053;-68
2022/04/12 03:01:50;;;;;;;6.28;4.70;;;14.10;66.20;;;;;;3897966;30;20458;-68
2022/04/12 03:04:13;;;;;;;8.05;4.85;;;14.10;67.10;;;;;;3897922;30;20048;-68
2022/04/12 03:06:35;;;;;;;5.38;4.90;;;14.10;66.00;;;;;;3897551;30;20088;-67
2022/04/12 03:08:57;;;;;;;6.78;4.93;;;14.10;65.50;;;;;;3897915;30;20052;-68
2022/04/12 03:11:19;;;;;;;6.55;4.63;;;14.10;65.40;;;;;;3897553;30;20131;-68
2022/04/12 03:13:42;;;;;;;6.25;5.07;;;14.10;66.00;;;;;;3897360;30;20057;-69
2022/04/12 03:16:05;;;;;;;5.35;4.82;;;14.10;66.10;;;;;;3897714;30;20061;-69
2022/04/12 03:18:28;;;;;;;7.68;5.40;;;14.10;66.20;;;;;;3897928;30;20413;-68
2022/04/12 03:20:51;;;;;;;6.88;5.30;;;14.10;66.40;;;;;;3884608;30;20172;-68
2022/04/12 03:23:13;;;;;;;8.25;5.18;;;14.20;66.50;;;;;;3898319;30;20060;-68
2022/04/12 03:25:35;;;;;;;8.40;5.20;;;14.10;66.50;;;;;;3901138;30;20129;-69
2022/04/12 03:27:57;;;;;;;5.40;4.90;;;14.10;66.60;;;;;;3901720;30;20064;-69
2022/04/12 03:30:19;;;;;;;7.30;6.00;;;14.10;66.60;;;;;;3900653;30;20478;-69
2022/04/12 03:32:41;;;;;;;6.97;5.85;;;14.10;66.60;;;;;;3899832;30;20137;-69
2022/04/12 03:35:04;;;;;;;6.32;5.70;;;14.20;66.80;;;;;;3899628;30;20057;-69
2022/04/12 03:37:28;;;;;;;7.20;5.72;;;14.10;66.80;;;;;;3900196;30;20057;-68
2022/04/12 03:39:51;;;;;;;12.52;6.30;;;14.10;66.60;;;;;;3900652;30;20520;-68
2022/04/12 03:42:15;;;;;;;6.55;5.50;;;14.20;66.60;;;;;;3886832;30;20057;-69
2022/04/12 03:44:37;;;;;;;9.55;5.72;;;14.10;66.60;;;;;;3887087;30;20061;-68
2022/04/12 03:46:59;;;;;;;8.57;5.55;;;14.10;66.50;;;;;;3900241;30;20065;-67
2022/04/12 03:49:23;;;;;;;10.27;5.55;;;14.10;66.30;;;;;;3899781;30;20061;-67
2022/04/12 03:51:45;;;;;;;11.75;6.25;;;14.10;66.40;;;;;;3899840;30;20060;-68
2022/04/12 03:54:09;;;;;;;8.77;6.38;;;14.20;66.20;;;;;;3900243;30;20080;-69
2022/04/12 03:56:31;;;;;;;6.72;6.03;;;14.10;65.70;;;;;;3899966;30;20069;-68
2022/04/12 03:58:53;;;;;;;8.63;5.88;;;14.10;65.50;;;;;;3900163;30;20053;-68
2022/04/12 04:01:15;;;;;;;10.13;5.72;;;14.10;65.50;;;;;;3899961;30;20131;-68
2022/04/12 04:03:38;;;;;;;6.95;5.50;;;14.10;65.50;;;;;;3900043;30;20496;-68
2022/04/12 04:06:00;;;;;;;8.52;5.72;;;14.10;65.60;;;;;;3899876;30;20072;-67
2022/04/12 04:08:22;;;;;;;7.43;6.53;;;14.10;66.90;;;;;;3899703;30;20052;-68
2022/04/12 04:10:46;;;;;;;8.68;6.43;;;14.10;66.30;;;;;;3900017;30;20059;-68
2022/04/12 04:13:12;;;;;;;7.55;5.78;;;14.10;66.30;;;;;;3900029;30;20076;-68
2022/04/12 04:15:36;;;;;;;9.00;6.63;;;14.10;66.20;;;;;;3899644;30;20061;-68
2022/04/12 04:17:58;;;;;;;6.20;5.50;;;14.00;66.50;;;;;;3899933;30;20082;-67
2022/04/12 04:20:20;;;;;;;9.13;6.70;;;14.00;66.60;;;;;;3899564;30;20056;-67
2022/04/12 04:22:43;;;;;;;8.82;5.95;;;14.10;65.30;;;;;;3899787;30;20067;-67
2022/04/12 04:25:06;;;;;;;9.68;6.25;;;14.00;65.10;;;;;;3899833;30;20132;-67
2022/04/12 04:27:30;;;;;;;8.77;5.38;;;14.00;64.10;;;;;;3899667;30;20075;-67
2022/04/12 04:29:52;;;;;;;9.00;5.90;;;14.00;65.20;;;;;;3899999;30;20115;-67
2022/04/12 04:32:14;;;;;;;7.70;5.82;;;14.00;65.80;;;;;;3900032;30;20513;-67
2022/04/12 04:34:36;;;;;;;9.55;6.40;;;14.00;66.10;;;;;;3899492;30;20064;-68
2022/04/12 04:36:58;;;;;;;7.82;6.53;;;13.90;64.80;;;;;;3899669;30;20061;-68
2022/04/12 04:39:21;;;;;;;11.02;6.07;;;14.00;63.50;;;;;;3899674;30;20055;-68
2022/04/12 04:41:43;;;;;;;7.82;5.35;;;14.00;63.80;;;;;;3886248;30;20141;-68
2022/04/12 04:44:07;;;;;;;8.73;5.75;;;14.00;63.20;;;;;;3899619;30;20049;-70
2022/04/12 04:46:30;;;;;;;7.35;6.07;;;13.90;64.70;;;;;;3899375;30;20104;-70
2022/04/12 04:48:52;;;;;;;7.93;6.53;;;13.90;65.30;;;;;;3898992;30;20064;-70
2022/04/12 04:51:14;;;;;;;8.00;6.88;;;13.90;63.90;;;;;;3899271;30;20060;-70
2022/04/12 04:53:37;;;;;;;8.07;5.55;;;13.90;62.30;;;;;;3886182;30;20064;-70
2022/04/12 04:55:59;;;;;;;9.65;6.53;;;13.90;62.60;;;;;;3885640;30;20066;-70
2022/04/12 04:58:21;;;;;;;8.80;6.55;;;13.90;63.70;;;;;;3899150;30;20057;-70
2022/04/12 05:00:44;;;;;;;7.40;6.10;;;13.90;65.40;;;;;;3899355;30;20194;-69
2022/04/12 05:03:07;;;;;;;7.53;5.70;;;13.90;65.40;;;;;;3899146;30;20072;-69
2022/04/12 05:05:29;;;;;;;9.77;6.32;;;13.80;65.90;;;;;;3886121;30;20065;-69
2022/04/12 05:07:52;;;;;;;7.85;6.07;;;13.90;66.30;;;;;;3899078;30;20045;-70
2022/04/12 05:10:15;;;;;;;8.15;6.03;;;13.80;66.40;;;;;;3898948;30;20233;-70
2022/04/12 05:12:37;;;;;;;10.57;6.03;;;13.80;66.60;;;;;;3899050;30;20061;-70
2022/04/12 05:14:59;;;;;;;10.15;6.78;;;13.90;66.50;;;;;;3886013;30;20096;-70
2022/04/12 05:17:26;;;;;;;7.00;6.18;;;13.80;65.90;;;;;;3899255;30;20516;-70
2022/04/12 05:19:49;;;;;;;8.80;6.28;;;13.80;64.40;;;;;;3899021;30;20065;-70
2022/04/12 05:22:11;;;;;;;9.35;6.25;;;13.80;62.80;;;;;;3899176;30;20771;-71
2022/04/12 05:24:33;;;;;;;11.73;7.13;;;13.80;62.60;;;;;;3898906;30;20371;-70
2022/04/12 05:26:55;;;;;;;8.50;6.82;;;13.80;60.60;;;;;;3898876;30;20057;-70
2022/04/12 05:29:17;;;;;;;8.07;6.35;;;13.80;61.20;;;;;;3898792;30;20388;-70
2022/04/12 05:31:38;;;;;;;10.40;6.40;;;13.80;62.00;;;;;;3898695;30;20123;-70
2022/04/12 05:34:02;;;;;;;7.35;5.93;;;13.80;61.70;;;;;;3898574;30;20064;-70
2022/04/12 05:36:24;;;;;;;11.95;7.10;;;13.80;63.30;;;;;;3885557;30;20123;-70
2022/04/12 05:38:46;;;;;;;6.82;6.13;;;13.80;61.20;;;;;;3898722;30;20057;-70
2022/04/12 05:41:08;;;;;;;7.80;5.70;;;13.70;61.70;;;;;;3898633;30;20065;-70
2022/04/12 05:43:31;;;;;;;7.07;6.25;;;13.70;59.80;;;;;;3898884;30;20540;-70
2022/04/12 05:45:53;;;;;;;8.05;6.30;;;13.70;59.90;;;;;;3898930;30;20156;-70
2022/04/12 05:48:15;;;;;;;11.73;6.70;;;13.70;60.10;;;;;;3898149;30;20136;-68
2022/04/12 05:50:39;;;;;;;9.20;6.68;;;13.70;59.70;;;;;;3898108;30;20566;-68
2022/04/12 05:53:01;;;;;;;9.40;6.63;;;13.70;60.40;;;;;;3898092;30;20067;-67
2022/04/12 05:55:26;;;;;;;8.07;6.15;;;13.70;60.70;;;;;;3897945;30;20126;-68
2022/04/12 05:57:49;;;;;;;10.30;6.63;;;13.70;60.20;;;;;;3898454;30;20111;-69
2022/04/12 06:00:12;;;;;;;8.18;6.90;;;13.70;60.90;;;;;;3898464;30;20069;-69
2022/04/12 06:02:34;;;;;;;7.65;6.10;;;13.70;61.10;;;;;;3884950;30;20057;-67
2022/04/12 06:04:57;;;;;;;8.95;6.32;;;13.80;62.30;;;;;;3898331;30;20056;-68
2022/04/12 06:07:20;;;;;;;7.75;6.85;;;13.80;63.20;;;;;;3898409;30;20057;-63
2022/04/12 06:09:43;;;;;;;8.23;6.18;;;13.80;63.40;;;;;;3897389;30;20072;-67
2022/04/12 06:12:05;;;;;;;8.82;6.18;;;13.80;62.90;;;;;;3897627;30;20060;-68
2022/04/12 06:14:28;;;;;;;10.93;6.57;;;13.80;63.00;;;;;;3897812;30;20053;-68
2022/04/12 06:16:50;;;;;;;9.18;6.95;;;13.90;63.90;;;;;;3897928;30;20063;-68
2022/04/12 06:19:12;;;;;;;10.48;7.18;;;13.90;64.10;;;;;;3897952;30;20482;-68
2022/04/12 06:21:35;;;;;;;11.95;7.32;;;13.90;62.10;;;;;;3884105;30;20061;-67
2022/04/12 06:23:59;;;;;;;8.20;7.15;;;13.90;61.50;;;;;;3897831;30;20057;-70
2022/04/12 06:26:21;;;;;;;9.35;7.07;;;13.90;62.10;;;;;;3897923;30;20065;-69
2022/04/12 06:28:44;;;;;;;9.75;7.53;;;13.90;63.20;;;;;;3897926;30;20059;-69
2022/04/12 06:31:06;;;;;;;8.10;6.97;;;13.90;63.50;;;;;;3896936;30;20063;-69
2022/04/12 06:33:29;;;;;;;10.38;7.95;;;13.80;63.60;;;;;;3897526;30;20052;-69
2022/04/12 06:35:52;;;;;;;9.35;7.43;;;13.80;63.40;;;;;;3897879;30;20111;-69
2022/04/12 06:38:14;;;;;;;8.35;7.45;;;13.80;63.70;;;;;;3897986;30;20143;-69
2022/04/12 06:40:39;;;;;;;11.05;7.75;;;13.80;63.50;;;;;;3897730;30;20072;-69
2022/04/12 06:43:01;;;;;;;10.65;7.80;;;13.80;63.70;;;;;;3898022;30;20163;-69
2022/04/12 06:45:23;;;;;;;11.23;8.30;;;13.80;63.60;;;;;;3898199;30;20934;-69
2022/04/12 06:47:53;;;;;;;12.00;8.25;;;13.90;63.40;;;;;;3897760;30;20146;-69
2022/04/12 06:50:15;;;;;;;10.65;7.80;;;13.90;63.20;;;;;;3897575;30;20053;-69
2022/04/12 06:52:38;;;;;;;13.30;7.72;;;13.80;63.50;;;;;;3883744;30;20057;-69
2022/04/12 06:55:01;;;;;;;8.43;7.05;;;13.90;64.40;;;;;;3897638;30;20049;-69
2022/04/12 06:57:24;;;;;;;9.07;7.40;;;13.90;64.80;;;;;;3897531;30;20417;-63
2022/04/12 06:59:47;;;;;;;11.80;8.45;;;13.80;65.00;;;;;;3881978;30;20057;-70
2022/04/12 07:02:10;;;;;;;12.90;8.02;;;13.90;65.20;;;;;;3895025;30;20545;-69
2022/04/12 07:04:33;;;;;;;9.57;7.45;;;13.80;64.70;;;;;;3895129;30;20064;-69
2022/04/12 07:06:56;;;;;;;9.88;7.45;;;13.90;65.10;;;;;;3894696;30;20164;-69
2022/04/12 07:09:20;;;;;;;11.30;7.05;;;13.90;65.00;;;;;;3897912;30;20068;-68
2022/04/12 07:11:42;;;;;;;12.30;7.63;;;13.80;64.40;;;;;;3897479;30;20061;-68
2022/04/12 07:14:06;;;;;;;11.93;7.93;;;13.90;65.30;;;;;;3897220;30;20164;-69
2022/04/12 07:16:28;;;;;;;9.45;7.63;;;13.90;65.10;;;;;;3897475;30;20068;-69
2022/04/12 07:18:51;;;;;;;11.82;7.88;;;13.90;65.30;;;;;;3897578;30;20744;-69
2022/04/12 07:21:13;;;;;;;12.45;8.25;;;13.90;65.60;;;;;;3897107;30;20057;-69
2022/04/12 07:23:36;;;;;;;10.68;7.82;;;13.90;65.40;;;;;;3897501;30;20057;-69
2022/04/12 07:25:59;;;;;;;10.35;7.75;;;13.90;65.50;;;;;;3884671;30;20061;-69
2022/04/12 07:28:21;;;;;;;10.70;7.53;;;13.90;65.40;;;;;;3897644;30;20052;-70
2022/04/12 07:30:44;;;;;;;11.50;7.70;;;13.90;65.40;;;;;;3883819;30;20065;-69
2022/04/12 07:33:12;;;;;;;8.43;7.25;;;14.00;66.00;;;;;;3897969;30;20115;-70
2022/04/12 07:35:34;;;;;;;11.55;7.80;;;13.90;66.70;;;;;;3899447;30;20057;-71
2022/04/12 07:37:56;;;;;;;11.10;7.82;;;14.00;66.10;;;;;;3899539;30;20078;-75
2022/04/12 07:40:18;;;;;;;11.55;7.70;;;14.00;66.40;;;;;;3899570;30;20177;-69
2022/04/12 07:42:41;;;;;;;10.18;7.97;;;14.10;67.60;;;;;;3886536;30;20062;-67
2022/04/12 07:45:03;;;;;;;10.63;8.50;;;14.10;67.10;;;;;;3899722;30;20056;-69
2022/04/12 07:47:26;;;;;;;11.25;7.18;;;14.20;66.30;;;;;;3899126;30;20049;-70
2022/04/12 07:49:48;;;;;;;11.13;7.85;;;14.20;65.90;;;;;;3898734;30;20062;-71
2022/04/12 07:52:10;;;;;;;11.32;7.82;;;14.30;66.10;;;;;;3899083;30;20061;-70
2022/04/12 07:54:32;;;;;;;9.90;8.00;;;14.40;66.30;;;;;;3869775;30;20062;-69
2022/04/12 07:56:54;;;;;;;9.88;8.10;;;14.50;65.90;;;;;;3871553;30;20554;-68
2022/04/12 07:59:17;;;;;;;10.38;8.10;;;14.50;64.60;;;;;;3871752;30;20499;-69
2022/04/12 08:01:39;;;;;;;10.68;8.15;;;14.50;63.70;;;;;;3871867;30;20058;-69
2022/04/12 08:04:03;;;;;;;9.05;7.82;;;14.60;63.50;;;;;;3871910;30;20162;-69
2022/04/12 08:06:25;;;;;;;12.52;7.65;;;14.60;63.30;;;;;;3871440;30;20671;-68
2022/04/12 08:08:48;;;;;;;8.88;7.80;;;14.70;63.90;;;;;;3871563;30;20065;-69
2022/04/12 08:11:10;;;;;;;12.27;8.40;;;14.70;63.40;;;;;;3871672;30;20057;-69
2022/04/12 08:13:33;;;;;;;10.38;7.25;;;14.80;63.10;;;;;;3871466;30;20085;-68
2022/04/12 08:15:55;;;;;;;10.50;8.35;;;14.80;62.90;;;;;;3871291;30;20089;-68
2022/04/12 08:18:18;;;;;;;8.77;6.95;;;14.80;62.20;;;;;;3871348;30;20068;-68
2022/04/12 08:20:41;;;;;;;9.80;8.13;;;14.90;62.10;;;;;;3871532;30;20422;-68
2022/04/12 08:23:03;;;;;;;12.02;8.75;;;14.90;62.10;;;;;;3871339;30;20414;-69
2022/04/12 08:25:26;;;;;;;11.02;7.82;;;14.90;62.20;;;;;;3871457;30;20065;-69
2022/04/12 08:27:48;;;;;;;10.50;8.18;;;14.90;62.60;;;;;;3871249;30;20061;-69
2022/04/12 08:30:11;;;;;;;9.30;8.10;;;14.90;62.60;;;;;;3869931;30;20526;-67
2022/04/12 08:32:33;;;;;;;11.48;8.50;;;15.00;62.20;;;;;;3871258;30;20065;-69
2022/04/12 08:34:55;;;;;;;18.83;8.50;;;15.00;61.90;;;;;;3870958;30;20064;-69
2022/04/12 08:37:19;;;;;;;10.50;8.63;;;15.00;61.10;;;;;;3871210;30;20507;-68
2022/04/12 08:39:41;;;;;;;9.75;8.20;;;15.00;60.70;;;;;;3871087;30;20064;-68
2022/04/12 08:42:05;;;;;;;11.50;8.07;;;15.10;61.60;;;;;;3882007;30;20057;-68
2022/04/12 08:44:30;;;;;;;13.35;8.70;;;15.10;61.50;;;;;;3871061;30;20069;-68
2022/04/12 08:46:54;;;;;;;11.55;8.20;;;15.10;61.70;;;;;;3869623;30;20084;-68
2022/04/12 08:49:16;;;;;;;12.27;7.78;;;15.10;60.80;;;;;;3870512;30;20078;-67
2022/04/12 08:51:39;;;;;;;12.95;8.43;;;15.20;61.10;;;;;;3871057;30;20077;-68
2022/04/12 08:54:03;;;;;;;10.65;8.73;;;15.20;61.30;;;;;;3896189;30;20049;-68
2022/04/12 08:56:29;;;;;;;9.77;7.75;;;15.20;61.00;;;;;;3898395;30;20601;-68
2022/04/12 08:58:51;;;;;;;12.20;8.50;;;15.20;61.30;;;;;;3897336;30;20064;-67
2022/04/12 09:01:31;;;;;;;13.00;8.70;;;15.30;61.50;;;;;;3898566;30;20148;-68
2022/04/12 09:03:54;;;;;;;13.13;9.07;;;15.20;61.10;;;;;;3898586;30;20414;-68
2022/04/12 09:06:16;;;;;;;10.93;8.90;;;15.30;61.30;;;;;;3898600;30;20067;-67
2022/04/12 09:08:39;;;;;;;8.85;7.88;;;15.30;62.30;;;;;;3898372;30;20770;-68
2022/04/12 09:11:04;;;;;;;11.70;8.68;;;15.30;62.50;;;;;;3899054;30;20065;-68
2022/04/12 09:13:28;;;;;;;11.70;8.50;;;15.30;62.50;;;;;;3898230;30;20057;-67
2022/04/12 09:15:50;;;;;;;12.15;8.27;;;15.40;62.60;;;;;;3898495;30;20053;-68
2022/04/12 09:18:35;;;;;;;13.07;9.32;;;15.40;62.60;;;;;;3898743;30;20069;-68
2022/04/12 09:21:09;;;;;;;12.65;8.30;;;15.40;62.60;;;;;;3898659;30;20430;-68
2022/04/12 09:23:35;;;;;;;10.75;7.88;;;15.50;62.20;;;;;;3898316;30;20142;-68
2022/04/12 09:25:57;;;;;;;13.90;8.70;;;15.50;62.00;;;;;;3898225;30;20061;-68
2022/04/12 09:28:21;;;;;;;13.15;9.23;;;15.50;61.60;;;;;;3898742;30;20572;-68
2022/04/12 09:31:14;;;;;;;13.10;9.02;;;15.50;61.80;;;;;;3897638;30;20053;-68
2022/04/12 09:33:37;;;;;;;12.80;8.85;;;15.60;62.30;;;;;;3898336;30;20065;-68
2022/04/12 09:35:59;;;;;;;12.07;9.07;;;15.60;62.10;;;;;;3898193;30;20461;-68
2022/04/12 09:38:32;;;;;;;12.38;9.90;;;15.60;60.90;;;;;;3898052;30;20166;-68
2022/04/12 09:41:18;;;;;;;13.45;9.35;;;15.70;60.10;;;;;;3898205;30;20053;-68
2022/04/12 09:44:08;;;;;;;11.02;8.90;;;15.70;61.40;;;;;;3897621;30;20149;-68
2022/04/12 09:46:31;;;;;;;13.95;9.18;;;15.70;61.20;;;;;;3897824;30;20068;-68
2022/04/12 09:48:54;;;;;;;12.60;9.07;;;15.70;61.20;;;;;;3898085;30;20049;-68
2022/04/12 09:51:17;;;;;;;12.32;9.05;;;15.80;61.70;;;;;;3898285;30;20061;-68
2022/04/12 09:53:40;;;;;;;14.02;9.45;;;15.80;61.60;;;;;;3897658;30;20052;-69
2022/04/12 09:56:19;;;;;;;14.38;9.10;;;15.80;61.40;;;;;;3897953;30;20061;-69
2022/04/12 09:58:41;;;;;;;10.70;8.10;;;15.90;61.10;;;;;;3897666;30;20127;-68
2022/04/12 10:01:05;;;;;;;13.68;8.75;;;15.90;61.40;;;;;;3898013;30;20053;-69
2022/04/12 10:03:28;;;;;;;10.75;9.32;;;15.90;61.50;;;;;;3894368;30;20506;-69
2022/04/12 10:05:51;;;;;;;11.60;9.43;;;16.00;61.50;;;;;;3889066;30;20403;-70
2022/04/12 10:08:18;;;;;;;13.70;8.68;;;16.00;61.10;;;;;;3883720;30;20142;-69
2022/04/12 10:10:42;;;;;;;11.40;8.32;;;16.00;61.20;;;;;;3884856;30;20395;-70
2022/04/12 10:13:04;;;;;;;12.18;9.05;;;16.10;61.20;;;;;;3884553;30;20426;-69
2022/04/12 10:15:28;;;;;;;12.63;9.63;;;16.10;60.90;;;;;;3892368;30;20493;-69
2022/04/12 10:17:52;;;;;;;14.23;9.20;;;16.10;61.20;;;;;;3898164;30;20061;-69
2022/04/12 10:20:15;;;;;;;11.95;8.70;;;16.10;61.00;;;;;;3897872;30;20049;-69
2022/04/12 10:22:39;;;;;;;11.32;8.85;;;16.20;61.20;;;;;;3894163;30;20115;-69
2022/04/12 10:25:03;;;;;;;14.98;9.77;;;16.20;60.80;;;;;;3898148;30;20477;-69
2022/04/12 10:27:25;;;;;;;13.38;9.70;;;16.20;61.00;;;;;;3898313;30;20049;-69
2022/04/12 10:30:29;;;;;;;13.05;8.15;;;16.30;61.00;;;;;;3897886;30;20119;-70
2022/04/12 10:33:06;;;;;;;11.35;8.95;;;16.30;60.10;;;;;;3883018;30;20099;-69
2022/04/12 10:35:29;;;;;;;14.15;9.60;;;16.30;59.70;;;;;;3898021;30;20506;-69
2022/04/12 10:37:53;;;;;;;12.55;9.48;;;16.40;60.50;;;;;;3884388;30;20050;-69
2022/04/12 10:40:35;;;;;;;13.93;9.98;;;16.40;60.70;;;;;;3897831;30;20065;-69
2022/04/12 10:42:58;;;;;;;17.23;11.32;;;16.40;60.70;;;;;;3897335;30;20099;-70
2022/04/12 10:45:28;;;;;;;15.65;9.95;;;16.50;60.60;;;;;;3884069;30;20085;-69
2022/04/12 10:47:57;;;;;;;14.85;9.32;;;16.50;60.50;;;;;;3883459;30;20160;-69
2022/04/12 10:50:21;;;;;;;13.00;9.20;;;16.60;60.20;;;;;;3883963;30;20076;-69
2022/04/12 10:52:45;;;;;;;15.95;9.38;;;16.60;59.60;;;;;;3884528;30;20071;-69
2022/04/12 10:55:09;;;;;;;12.48;9.10;;;16.60;59.80;;;;;;3883765;30;20406;-68
2022/04/12 10:57:36;;;;;;;14.88;9.25;;;16.70;59.60;;;;;;3883873;30;20434;-68
2022/04/12 11:00:03;;;;;;;14.88;9.68;;;16.70;59.70;;;;;;3883464;30;20157;-68
2022/04/12 11:02:30;;;;;;;15.70;10.07;;;16.70;59.50;;;;;;3891101;30;20061;-68
2022/04/12 11:04:52;;;;;;;11.93;9.85;;;16.80;59.30;;;;;;3897897;30;20139;-68
2022/04/12 11:07:33;;;;;;;15.45;10.90;;;16.80;59.40;;;;;;3897201;30;20061;-67
2022/04/12 11:10:24;;;;;;;14.98;10.75;;;16.80;59.10;;;;;;3897580;30;20057;-67
2022/04/12 11:12:48;;;;;;;15.45;10.07;;;16.90;59.10;;;;;;3858016;30;20457;-68
2022/04/12 11:15:25;;;;;;;14.10;9.80;;;16.90;59.10;;;;;;3884186;30;20054;-67
2022/04/12 11:17:47;;;;;;;14.85;9.02;;;16.90;59.10;;;;;;3883741;30;20449;-67
2022/04/12 11:20:21;;;;;;;16.00;9.23;;;16.90;59.00;;;;;;3883571;30;20155;-68
2022/04/12 11:22:46;;;;;;;17.05;10.30;;;16.90;59.00;;;;;;3883624;30;20145;-68
2022/04/12 11:25:15;;;;;;;13.15;9.45;;;17.00;58.80;;;;;;3897569;30;20067;-67
2022/04/12 11:27:37;;;;;;;11.73;8.95;;;17.00;59.10;;;;;;3897115;30;20068;-69
2022/04/12 11:29:59;;;;;;;13.30;9.50;;;17.00;59.00;;;;;;3890984;30;20049;-68
2022/04/12 11:32:23;;;;;;;12.55;8.85;;;17.10;59.10;;;;;;3897158;30;20139;-67
2022/04/12 11:34:46;;;;;;;12.35;8.63;;;17.10;59.30;;;;;;3883111;30;20140;-68
2022/04/12 11:37:11;;;;;;;15.10;9.73;;;17.10;59.40;;;;;;3882698;30;20064;-68
2022/04/12 11:39:37;;;;;;;12.10;9.38;;;17.10;59.30;;;;;;3882848;30;20061;-67
2022/04/12 11:42:01;;;;;;;14.27;9.60;;;17.20;59.30;;;;;;3882582;30;20061;-69
2022/04/12 11:44:24;;;;;;;15.40;9.98;;;17.20;59.40;;;;;;3881305;30;20067;-68
2022/04/12 11:46:46;;;;;;;15.68;10.25;;;17.20;59.30;;;;;;3897951;30;20084;-67
2022/04/12 11:49:12;;;;;;;14.57;9.90;;;17.30;59.40;;;;;;3897501;30;20148;-70
2022/04/12 11:51:39;;;;;;;12.27;9.52;;;17.30;59.50;;;;;;3896674;30;20071;-68
2022/04/12 11:54:01;;;;;;;13.57;9.48;;;17.30;59.50;;;;;;3898027;30;20056;-68
2022/04/12 11:56:28;;;;;;;13.75;10.07;;;17.30;59.20;;;;;;3899890;30;20461;-68
2022/04/12 11:58:49;;;;;;;15.80;9.80;;;17.40;59.30;;;;;;3886207;30;20144;-68
2022/04/12 12:01:13;;;;;;;12.38;10.02;;;17.40;59.50;;;;;;3899246;30;20053;-69
2022/04/12 12:03:37;;;;;;;12.18;9.10;;;17.40;59.40;;;;;;3897545;30;20474;-70
2022/04/12 12:05:59;;;;;;;14.25;9.73;;;17.50;60.40;;;;;;3899663;30;20445;-70
2022/04/12 12:08:21;;;;;;;11.77;8.43;;;17.50;59.50;;;;;;3886459;30;20070;-69
2022/04/12 12:10:43;;;;;;;11.65;10.13;;;17.50;59.60;;;;;;3898768;30;20057;-68
2022/04/12 12:13:08;;;;;;;17.27;10.68;;;17.50;60.10;;;;;;3899224;30;20060;-69
2022/04/12 12:15:30;;;;;;;12.90;9.23;;;17.50;59.40;;;;;;3899687;30;20138;-69
2022/04/12 12:17:53;;;;;;;16.83;10.40;;;17.60;59.50;;;;;;3899814;30;20063;-69
2022/04/12 12:20:18;;;;;;;15.20;9.65;;;17.60;59.30;;;;;;3899368;30;20065;-69
2022/04/12 12:22:43;;;;;;;14.77;9.75;;;17.60;59.20;;;;;;3899608;30;20069;-68
2022/04/12 12:25:05;;;;;;;12.07;9.52;;;17.60;59.50;;;;;;3885191;30;20057;-68